Ballachulish, United Kingdom
Current Conditions -  °F | °C
As of 10:20 AM on Tuesday 27 Jan 2015 (Local Time) from EGEO Reporting Station
Rain Showers Rain Showers  
Wind Chill: 41°   Ceiling: 2000
Heat Index: 46°   Visibility: 4mi
Dew Point: 43°   Wind: 13mph
Humidity: 87%   Direction: 230°SW
Pressure: 30.18"   Gusts: NA
Location:  56.68°N, 5.13°W
Report Text: EGEO 271020Z 23011KT 7000 -SHRA SCT014 BKN020 08/06 Q1022
Loading
Personal Weather Stations






























Interactive Weather Map New forecast layout! Learn more

10-Day Weather Forecast

Advertisements
Track Severe Weather on mobile